sensor_id;sensor_type;location;lat;lon;timestamp;temperature;humidity
27266;DHT22;14766;51.380;13.762;2024-01-06T00:00:20;8.10;69.80
27266;DHT22;14766;51.380;13.762;2024-01-06T00:02:50;8.10;69.90
27266;DHT22;14766;51.380;13.762;2024-01-06T00:05:17;8.00;69.90
27266;DHT22;14766;51.380;13.762;2024-01-06T00:07:44;8.00;69.80
27266;DHT22;14766;51.380;13.762;2024-01-06T00:10:11;7.90;69.70
27266;DHT22;14766;51.380;13.762;2024-01-06T00:12:43;7.90;69.70
27266;DHT22;14766;51.380;13.762;2024-01-06T00:15:13;7.90;69.60
27266;DHT22;14766;51.380;13.762;2024-01-06T00:17:40;7.80;69.60
27266;DHT22;14766;51.380;13.762;2024-01-06T00:20:08;7.80;69.60
27266;DHT22;14766;51.380;13.762;2024-01-06T00:22:35;7.70;69.50
27266;DHT22;14766;51.380;13.762;2024-01-06T00:25:02;7.70;70.40
27266;DHT22;14766;51.380;13.762;2024-01-06T00:27:30;7.60;70.20
27266;DHT22;14766;51.380;13.762;2024-01-06T00:29:57;7.70;70.30
27266;DHT22;14766;51.380;13.762;2024-01-06T00:32:24;7.60;70.40
27266;DHT22;14766;51.380;13.762;2024-01-06T00:34:51;7.60;70.30
27266;DHT22;14766;51.380;13.762;2024-01-06T00:37:18;7.50;70.20
27266;DHT22;14766;51.380;13.762;2024-01-06T00:39:46;7.60;70.30
27266;DHT22;14766;51.380;13.762;2024-01-06T00:42:13;7.50;70.20
27266;DHT22;14766;51.380;13.762;2024-01-06T00:44:40;7.50;70.10
27266;DHT22;14766;51.380;13.762;2024-01-06T00:47:08;7.50;70.20
27266;DHT22;14766;51.380;13.762;2024-01-06T00:49:35;7.40;69.90
27266;DHT22;14766;51.380;13.762;2024-01-06T00:52:03;7.40;69.80
27266;DHT22;14766;51.380;13.762;2024-01-06T00:54:30;7.40;70.00
27266;DHT22;14766;51.380;13.762;2024-01-06T00:56:57;7.30;69.90
27266;DHT22;14766;51.380;13.762;2024-01-06T00:59:24;7.30;69.90
27266;DHT22;14766;51.380;13.762;2024-01-06T01:01:52;7.30;69.90
27266;DHT22;14766;51.380;13.762;2024-01-06T01:04:19;7.30;69.90
27266;DHT22;14766;51.380;13.762;2024-01-06T01:06:46;7.20;69.80
27266;DHT22;14766;51.380;13.762;2024-01-06T01:09:13;7.20;69.80
27266;DHT22;14766;51.380;13.762;2024-01-06T01:11:41;7.20;70.70
27266;DHT22;14766;51.380;13.762;2024-01-06T01:14:09;7.20;69.80
27266;DHT22;14766;51.380;13.762;2024-01-06T01:16:36;7.20;69.80
27266;DHT22;14766;51.380;13.762;2024-01-06T01:19:03;7.10;69.70
27266;DHT22;14766;51.380;13.762;2024-01-06T01:21:30;7.10;69.80
27266;DHT22;14766;51.380;13.762;2024-01-06T01:23:57;7.10;69.70
27266;DHT22;14766;51.380;13.762;2024-01-06T01:26:24;7.00;69.70
27266;DHT22;14766;51.380;13.762;2024-01-06T01:28:52;7.00;69.80
27266;DHT22;14766;51.380;13.762;2024-01-06T01:31:19;7.00;69.90
27266;DHT22;14766;51.380;13.762;2024-01-06T01:33:47;7.00;70.00
27266;DHT22;14766;51.380;13.762;2024-01-06T01:36:14;7.00;69.90
27266;DHT22;14766;51.380;13.762;2024-01-06T01:38:41;6.90;69.80
27266;DHT22;14766;51.380;13.762;2024-01-06T01:41:09;6.90;69.80
27266;DHT22;14766;51.380;13.762;2024-01-06T01:43:36;6.90;69.80
27266;DHT22;14766;51.380;13.762;2024-01-06T01:46:03;6.90;70.00
27266;DHT22;14766;51.380;13.762;2024-01-06T01:48:30;6.90;69.90
27266;DHT22;14766;51.380;13.762;2024-01-06T01:51:01;6.90;69.90
27266;DHT22;14766;51.380;13.762;2024-01-06T01:53:29;6.80;69.90
27266;DHT22;14766;51.380;13.762;2024-01-06T01:55:58;6.90;69.80
27266;DHT22;14766;51.380;13.762;2024-01-06T01:58:26;6.80;69.80
27266;DHT22;14766;51.380;13.762;2024-01-06T02:00:53;6.80;69.90
27266;DHT22;14766;51.380;13.762;2024-01-06T02:03:21;6.80;69.90
27266;DHT22;14766;51.380;13.762;2024-01-06T02:05:49;6.80;69.80
27266;DHT22;14766;51.380;13.762;2024-01-06T02:08:16;6.80;69.70
27266;DHT22;14766;51.380;13.762;2024-01-06T02:10:43;6.70;69.60
27266;DHT22;14766;51.380;13.762;2024-01-06T02:13:11;6.70;69.40
27266;DHT22;14766;51.380;13.762;2024-01-06T02:15:38;6.70;69.50
27266;DHT22;14766;51.380;13.762;2024-01-06T02:18:07;6.70;69.70
27266;DHT22;14766;51.380;13.762;2024-01-06T02:20:35;6.70;69.70
27266;DHT22;14766;51.380;13.762;2024-01-06T02:23:02;6.70;69.90
27266;DHT22;14766;51.380;13.762;2024-01-06T02:25:29;6.60;69.80
27266;DHT22;14766;51.380;13.762;2024-01-06T02:27:56;6.60;69.80
27266;DHT22;14766;51.380;13.762;2024-01-06T02:30:23;6.60;69.70
27266;DHT22;14766;51.380;13.762;2024-01-06T02:32:51;6.60;69.70
27266;DHT22;14766;51.380;13.762;2024-01-06T02:35:20;6.50;69.70
27266;DHT22;14766;51.380;13.762;2024-01-06T02:37:48;6.60;69.90
27266;DHT22;14766;51.380;13.762;2024-01-06T02:40:16;6.50;69.90
27266;DHT22;14766;51.380;13.762;2024-01-06T02:42:43;6.50;69.90
27266;DHT22;14766;51.380;13.762;2024-01-06T02:45:10;6.50;70.30
27266;DHT22;14766;51.380;13.762;2024-01-06T02:47:37;6.50;70.00
27266;DHT22;14766;51.380;13.762;2024-01-06T02:50:05;6.50;69.90
27266;DHT22;14766;51.380;13.762;2024-01-06T02:52:32;6.50;69.80
27266;DHT22;14766;51.380;13.762;2024-01-06T02:54:59;6.50;69.80
27266;DHT22;14766;51.380;13.762;2024-01-06T02:57:29;6.50;69.80
27266;DHT22;14766;51.380;13.762;2024-01-06T02:59:57;6.50;69.90
27266;DHT22;14766;51.380;13.762;2024-01-06T03:02:24;6.40;70.00
27266;DHT22;14766;51.380;13.762;2024-01-06T03:04:51;6.40;70.10
27266;DHT22;14766;51.380;13.762;2024-01-06T03:07:18;6.40;70.10
27266;DHT22;14766;51.380;13.762;2024-01-06T03:09:45;6.40;70.00
27266;DHT22;14766;51.380;13.762;2024-01-06T03:12:12;6.40;69.90
27266;DHT22;14766;51.380;13.762;2024-01-06T03:14:39;6.40;69.90
27266;DHT22;14766;51.380;13.762;2024-01-06T03:17:06;6.40;70.70
27266;DHT22;14766;51.380;13.762;2024-01-06T03:19:34;6.40;69.80
27266;DHT22;14766;51.380;13.762;2024-01-06T03:22:01;6.40;69.80
27266;DHT22;14766;51.380;13.762;2024-01-06T03:24:28;6.40;69.80
27266;DHT22;14766;51.380;13.762;2024-01-06T03:26:55;6.40;69.80
27266;DHT22;14766;51.380;13.762;2024-01-06T03:29:22;6.40;70.00
27266;DHT22;14766;51.380;13.762;2024-01-06T03:31:49;6.30;69.90
27266;DHT22;14766;51.380;13.762;2024-01-06T03:34:16;6.30;69.80
27266;DHT22;14766;51.380;13.762;2024-01-06T03:36:44;6.30;69.80
27266;DHT22;14766;51.380;13.762;2024-01-06T03:39:11;6.30;69.80
27266;DHT22;14766;51.380;13.762;2024-01-06T03:41:39;6.30;69.90
27266;DHT22;14766;51.380;13.762;2024-01-06T03:44:06;6.30;69.90
27266;DHT22;14766;51.380;13.762;2024-01-06T03:46:34;6.30;69.90
27266;DHT22;14766;51.380;13.762;2024-01-06T03:49:01;6.20;69.90
27266;DHT22;14766;51.380;13.762;2024-01-06T03:51:29;6.20;69.90
27266;DHT22;14766;51.380;13.762;2024-01-06T03:53:56;6.20;69.80
27266;DHT22;14766;51.380;13.762;2024-01-06T03:56:23;6.20;69.80
27266;DHT22;14766;51.380;13.762;2024-01-06T03:58:51;6.20;69.70
27266;DHT22;14766;51.380;13.762;2024-01-06T04:01:17;6.20;69.80
27266;DHT22;14766;51.380;13.762;2024-01-06T04:03:45;6.20;70.00
27266;DHT22;14766;51.380;13.762;2024-01-06T04:06:12;6.20;70.00
27266;DHT22;14766;51.380;13.762;2024-01-06T04:08:40;6.20;69.80
27266;DHT22;14766;51.380;13.762;2024-01-06T04:11:09;6.20;69.80
27266;DHT22;14766;51.380;13.762;2024-01-06T04:13:36;6.10;69.70
27266;DHT22;14766;51.380;13.762;2024-01-06T04:16:04;6.10;69.60
27266;DHT22;14766;51.380;13.762;2024-01-06T04:18:33;6.10;69.50
27266;DHT22;14766;51.380;13.762;2024-01-06T04:21:00;6.10;69.40
27266;DHT22;14766;51.380;13.762;2024-01-06T04:23:27;6.10;69.40
27266;DHT22;14766;51.380;13.762;2024-01-06T04:25:54;6.10;69.50
27266;DHT22;14766;51.380;13.762;2024-01-06T04:28:21;6.00;69.60
27266;DHT22;14766;51.380;13.762;2024-01-06T04:30:49;6.00;69.70
27266;DHT22;14766;51.380;13.762;2024-01-06T04:33:16;6.00;69.60
27266;DHT22;14766;51.380;13.762;2024-01-06T04:35:44;6.00;69.50
27266;DHT22;14766;51.380;13.762;2024-01-06T04:38:11;6.00;69.50
27266;DHT22;14766;51.380;13.762;2024-01-06T04:40:38;6.00;69.50
27266;DHT22;14766;51.380;13.762;2024-01-06T04:43:05;6.00;70.50
27266;DHT22;14766;51.380;13.762;2024-01-06T04:45:32;5.90;69.70
27266;DHT22;14766;51.380;13.762;2024-01-06T04:47:59;5.90;69.70
27266;DHT22;14766;51.380;13.762;2024-01-06T04:50:27;5.90;69.60
27266;DHT22;14766;51.380;13.762;2024-01-06T04:52:54;5.90;69.60
27266;DHT22;14766;51.380;13.762;2024-01-06T04:55:21;5.90;69.60
27266;DHT22;14766;51.380;13.762;2024-01-06T04:57:49;5.90;69.60
27266;DHT22;14766;51.380;13.762;2024-01-06T05:00:16;5.90;69.70
27266;DHT22;14766;51.380;13.762;2024-01-06T05:02:44;5.90;69.80
27266;DHT22;14766;51.380;13.762;2024-01-06T05:05:11;5.90;69.80
27266;DHT22;14766;51.380;13.762;2024-01-06T05:07:38;5.90;70.00
27266;DHT22;14766;51.380;13.762;2024-01-06T05:10:06;5.90;70.10
27266;DHT22;14766;51.380;13.762;2024-01-06T05:12:33;5.90;70.20
27266;DHT22;14766;51.380;13.762;2024-01-06T05:15:00;5.90;70.20
27266;DHT22;14766;51.380;13.762;2024-01-06T05:17:27;5.90;70.10
27266;DHT22;14766;51.380;13.762;2024-01-06T05:19:55;5.90;70.20
27266;DHT22;14766;51.380;13.762;2024-01-06T05:22:22;5.90;70.20
27266;DHT22;14766;51.380;13.762;2024-01-06T05:24:49;5.90;70.20
27266;DHT22;14766;51.380;13.762;2024-01-06T05:27:20;5.90;70.20
27266;DHT22;14766;51.380;13.762;2024-01-06T05:29:47;6.00;70.30
27266;DHT22;14766;51.380;13.762;2024-01-06T05:32:16;5.90;70.40
27266;DHT22;14766;51.380;13.762;2024-01-06T05:34:45;5.90;70.40
27266;DHT22;14766;51.380;13.762;2024-01-06T05:37:12;5.90;70.30
27266;DHT22;14766;51.380;13.762;2024-01-06T05:39:39;6.00;70.40
27266;DHT22;14766;51.380;13.762;2024-01-06T05:42:09;6.00;70.50
27266;DHT22;14766;51.380;13.762;2024-01-06T05:44:39;6.00;70.50
27266;DHT22;14766;51.380;13.762;2024-01-06T05:47:06;6.00;70.40
27266;DHT22;14766;51.380;13.762;2024-01-06T05:49:35;6.00;70.20
27266;DHT22;14766;51.380;13.762;2024-01-06T05:52:02;6.00;70.00
27266;DHT22;14766;51.380;13.762;2024-01-06T05:54:29;6.00;70.00
27266;DHT22;14766;51.380;13.762;2024-01-06T05:56:57;5.90;70.00
27266;DHT22;14766;51.380;13.762;2024-01-06T05:59:24;5.90;70.10
27266;DHT22;14766;51.380;13.762;2024-01-06T06:01:51;5.90;70.10
27266;DHT22;14766;51.380;13.762;2024-01-06T06:04:19;5.90;70.30
27266;DHT22;14766;51.380;13.762;2024-01-06T06:06:46;5.90;70.50
27266;DHT22;14766;51.380;13.762;2024-01-06T06:09:14;5.90;70.70
27266;DHT22;14766;51.380;13.762;2024-01-06T06:11:42;5.90;70.90
27266;DHT22;14766;51.380;13.762;2024-01-06T06:14:10;5.90;70.90
27266;DHT22;14766;51.380;13.762;2024-01-06T06:16:36;6.00;71.00
27266;DHT22;14766;51.380;13.762;2024-01-06T06:19:04;5.90;71.00
27266;DHT22;14766;51.380;13.762;2024-01-06T06:21:31;6.00;71.10
27266;DHT22;14766;51.380;13.762;2024-01-06T06:23:58;6.00;71.10
27266;DHT22;14766;51.380;13.762;2024-01-06T06:26:27;6.00;71.10
27266;DHT22;14766;51.380;13.762;2024-01-06T06:28:54;6.10;71.10
27266;DHT22;14766;51.380;13.762;2024-01-06T06:31:21;6.10;71.00
27266;DHT22;14766;51.380;13.762;2024-01-06T06:33:48;6.00;70.90
27266;DHT22;14766;51.380;13.762;2024-01-06T06:36:16;6.10;71.10
27266;DHT22;14766;51.380;13.762;2024-01-06T06:38:43;6.10;71.20
27266;DHT22;14766;51.380;13.762;2024-01-06T06:41:10;6.10;71.20
27266;DHT22;14766;51.380;13.762;2024-01-06T06:43:37;6.10;71.40
27266;DHT22;14766;51.380;13.762;2024-01-06T06:46:04;6.10;71.40
27266;DHT22;14766;51.380;13.762;2024-01-06T06:48:31;6.10;71.20
27266;DHT22;14766;51.380;13.762;2024-01-06T06:50:59;6.10;71.20
27266;DHT22;14766;51.380;13.762;2024-01-06T06:53:26;6.10;71.30
27266;DHT22;14766;51.380;13.762;2024-01-06T06:55:53;6.20;71.50
27266;DHT22;14766;51.380;13.762;2024-01-06T06:58:20;6.10;71.50
27266;DHT22;14766;51.380;13.762;2024-01-06T07:00:47;6.20;71.70
27266;DHT22;14766;51.380;13.762;2024-01-06T07:03:14;6.20;71.70
27266;DHT22;14766;51.380;13.762;2024-01-06T07:05:41;6.20;71.50
27266;DHT22;14766;51.380;13.762;2024-01-06T07:08:09;6.20;71.50
27266;DHT22;14766;51.380;13.762;2024-01-06T07:10:36;6.20;71.30
27266;DHT22;14766;51.380;13.762;2024-01-06T07:13:03;6.20;71.40
27266;DHT22;14766;51.380;13.762;2024-01-06T07:15:30;6.20;71.40
27266;DHT22;14766;51.380;13.762;2024-01-06T07:17:57;6.20;71.50
27266;DHT22;14766;51.380;13.762;2024-01-06T07:20:24;6.20;71.50
27266;DHT22;14766;51.380;13.762;2024-01-06T07:22:51;6.20;71.40
27266;DHT22;14766;51.380;13.762;2024-01-06T07:25:19;6.20;71.50
27266;DHT22;14766;51.380;13.762;2024-01-06T07:27:45;6.20;71.50
27266;DHT22;14766;51.380;13.762;2024-01-06T07:30:13;6.20;71.50
27266;DHT22;14766;51.380;13.762;2024-01-06T07:32:40;6.20;71.50
27266;DHT22;14766;51.380;13.762;2024-01-06T07:35:09;6.20;71.50
27266;DHT22;14766;51.380;13.762;2024-01-06T07:37:36;6.20;71.70
27266;DHT22;14766;51.380;13.762;2024-01-06T07:40:03;6.20;71.60
27266;DHT22;14766;51.380;13.762;2024-01-06T07:42:30;6.20;71.60
27266;DHT22;14766;51.380;13.762;2024-01-06T07:44:58;6.30;71.60
27266;DHT22;14766;51.380;13.762;2024-01-06T07:47:26;6.20;71.40
27266;DHT22;14766;51.380;13.762;2024-01-06T07:49:53;6.20;71.40
27266;DHT22;14766;51.380;13.762;2024-01-06T07:52:21;6.20;71.50
27266;DHT22;14766;51.380;13.762;2024-01-06T07:54:48;6.20;71.70
27266;DHT22;14766;51.380;13.762;2024-01-06T07:57:16;6.20;71.70
27266;DHT22;14766;51.380;13.762;2024-01-06T07:59:43;6.20;71.80
27266;DHT22;14766;51.380;13.762;2024-01-06T08:02:10;6.30;72.00
27266;DHT22;14766;51.380;13.762;2024-01-06T08:04:37;6.30;71.90
27266;DHT22;14766;51.380;13.762;2024-01-06T08:07:04;6.30;71.90
27266;DHT22;14766;51.380;13.762;2024-01-06T08:09:31;6.30;71.90
27266;DHT22;14766;51.380;13.762;2024-01-06T08:11:58;6.30;72.00
27266;DHT22;14766;51.380;13.762;2024-01-06T08:14:25;6.30;71.90
27266;DHT22;14766;51.380;13.762;2024-01-06T08:16:52;6.30;71.90
27266;DHT22;14766;51.380;13.762;2024-01-06T08:19:19;6.30;71.80
27266;DHT22;14766;51.380;13.762;2024-01-06T08:21:47;6.30;71.80
27266;DHT22;14766;51.380;13.762;2024-01-06T08:24:15;6.30;71.90
27266;DHT22;14766;51.380;13.762;2024-01-06T08:26:42;6.30;71.90
27266;DHT22;14766;51.380;13.762;2024-01-06T08:29:09;6.30;71.90
27266;DHT22;14766;51.380;13.762;2024-01-06T08:31:36;6.30;71.90
27266;DHT22;14766;51.380;13.762;2024-01-06T08:34:03;6.30;71.90
27266;DHT22;14766;51.380;13.762;2024-01-06T08:36:33;6.30;72.90
27266;DHT22;14766;51.380;13.762;2024-01-06T08:39:00;6.30;72.10
27266;DHT22;14766;51.380;13.762;2024-01-06T08:41:28;6.30;72.20
27266;DHT22;14766;51.380;13.762;2024-01-06T08:43:55;6.30;72.40
27266;DHT22;14766;51.380;13.762;2024-01-06T08:46:22;6.30;72.60
27266;DHT22;14766;51.380;13.762;2024-01-06T08:48:49;6.20;72.50
27266;DHT22;14766;51.380;13.762;2024-01-06T08:51:16;6.20;72.60
27266;DHT22;14766;51.380;13.762;2024-01-06T08:53:44;6.20;72.70
27266;DHT22;14766;51.380;13.762;2024-01-06T08:56:11;6.20;72.90
27266;DHT22;14766;51.380;13.762;2024-01-06T08:58:38;6.10;73.00
27266;DHT22;14766;51.380;13.762;2024-01-06T09:01:05;6.10;73.30
27266;DHT22;14766;51.380;13.762;2024-01-06T09:03:32;6.10;73.60
27266;DHT22;14766;51.380;13.762;2024-01-06T09:05:59;6.10;73.70
27266;DHT22;14766;51.380;13.762;2024-01-06T09:08:27;6.10;73.90
27266;DHT22;14766;51.380;13.762;2024-01-06T09:10:55;6.10;74.00
27266;DHT22;14766;51.380;13.762;2024-01-06T09:13:24;6.10;74.30
27266;DHT22;14766;51.380;13.762;2024-01-06T09:15:52;6.10;74.30
27266;DHT22;14766;51.380;13.762;2024-01-06T09:18:19;6.10;74.30
27266;DHT22;14766;51.380;13.762;2024-01-06T09:20:47;6.20;74.60
27266;DHT22;14766;51.380;13.762;2024-01-06T09:23:16;6.20;74.60
27266;DHT22;14766;51.380;13.762;2024-01-06T09:25:44;6.20;75.00
27266;DHT22;14766;51.380;13.762;2024-01-06T09:28:11;6.20;74.80
27266;DHT22;14766;51.380;13.762;2024-01-06T09:30:39;6.20;74.80
27266;DHT22;14766;51.380;13.762;2024-01-06T09:33:06;6.20;74.70
27266;DHT22;14766;51.380;13.762;2024-01-06T09:35:35;6.20;74.80
27266;DHT22;14766;51.380;13.762;2024-01-06T09:38:02;6.30;75.00
27266;DHT22;14766;51.380;13.762;2024-01-06T09:40:31;6.30;75.00
27266;DHT22;14766;51.380;13.762;2024-01-06T09:42:58;6.30;75.00
27266;DHT22;14766;51.380;13.762;2024-01-06T09:45:25;6.30;75.00
27266;DHT22;14766;51.380;13.762;2024-01-06T09:47:54;6.30;75.20
27266;DHT22;14766;51.380;13.762;2024-01-06T09:50:22;6.40;75.30
27266;DHT22;14766;51.380;13.762;2024-01-06T09:52:49;6.40;75.10
27266;DHT22;14766;51.380;13.762;2024-01-06T09:55:25;6.40;75.10
27266;DHT22;14766;51.380;13.762;2024-01-06T09:57:53;6.40;75.00
27266;DHT22;14766;51.380;13.762;2024-01-06T10:00:21;6.50;75.00
27266;DHT22;14766;51.380;13.762;2024-01-06T10:02:49;6.50;75.00
27266;DHT22;14766;51.380;13.762;2024-01-06T10:05:18;6.50;75.20
27266;DHT22;14766;51.380;13.762;2024-01-06T10:07:46;6.50;75.00
27266;DHT22;14766;51.380;13.762;2024-01-06T10:10:14;6.60;75.00
27266;DHT22;14766;51.380;13.762;2024-01-06T10:12:42;6.60;75.10
27266;DHT22;14766;51.380;13.762;2024-01-06T10:15:11;6.60;75.00
27266;DHT22;14766;51.380;13.762;2024-01-06T10:17:39;6.60;74.90
27266;DHT22;14766;51.380;13.762;2024-01-06T10:20:11;6.60;75.00
27266;DHT22;14766;51.380;13.762;2024-01-06T10:22:41;6.70;75.00
27266;DHT22;14766;51.380;13.762;2024-01-06T10:25:10;6.70;75.00
27266;DHT22;14766;51.380;13.762;2024-01-06T10:27:38;6.70;76.00
27266;DHT22;14766;51.380;13.762;2024-01-06T10:30:07;6.70;75.10
27266;DHT22;14766;51.380;13.762;2024-01-06T10:32:35;6.80;75.00
27266;DHT22;14766;51.380;13.762;2024-01-06T10:35:04;6.80;74.90
27266;DHT22;14766;51.380;13.762;2024-01-06T10:37:33;6.80;74.80
27266;DHT22;14766;51.380;13.762;2024-01-06T10:40:15;6.80;74.90
27266;DHT22;14766;51.380;13.762;2024-01-06T10:42:45;6.80;75.00
27266;DHT22;14766;51.380;13.762;2024-01-06T10:45:14;6.80;74.90
27266;DHT22;14766;51.380;13.762;2024-01-06T10:47:43;6.90;74.90
27266;DHT22;14766;51.380;13.762;2024-01-06T10:50:11;6.80;74.90
27266;DHT22;14766;51.380;13.762;2024-01-06T10:52:38;6.90;74.90
27266;DHT22;14766;51.380;13.762;2024-01-06T10:55:06;6.80;74.70
27266;DHT22;14766;51.380;13.762;2024-01-06T10:57:34;6.90;74.70
27266;DHT22;14766;51.380;13.762;2024-01-06T11:00:04;6.90;75.60
27266;DHT22;14766;51.380;13.762;2024-01-06T11:02:32;6.90;74.70
27266;DHT22;14766;51.380;13.762;2024-01-06T11:05:00;6.90;74.80
27266;DHT22;14766;51.380;13.762;2024-01-06T11:07:28;6.90;74.90
27266;DHT22;14766;51.380;13.762;2024-01-06T11:10:04;6.90;75.00
27266;DHT22;14766;51.380;13.762;2024-01-06T11:12:32;6.90;75.10
27266;DHT22;14766;51.380;13.762;2024-01-06T11:15:00;6.90;75.10
27266;DHT22;14766;51.380;13.762;2024-01-06T11:17:51;6.90;75.00
27266;DHT22;14766;51.380;13.762;2024-01-06T11:20:23;6.90;75.00
27266;DHT22;14766;51.380;13.762;2024-01-06T11:22:51;6.90;75.00
27266;DHT22;14766;51.380;13.762;2024-01-06T11:25:22;6.90;75.20
27266;DHT22;14766;51.380;13.762;2024-01-06T11:27:50;6.90;75.10
27266;DHT22;14766;51.380;13.762;2024-01-06T11:30:27;6.90;75.10
27266;DHT22;14766;51.380;13.762;2024-01-06T11:32:56;6.90;75.10
27266;DHT22;14766;51.380;13.762;2024-01-06T11:35:27;6.90;75.00
27266;DHT22;14766;51.380;13.762;2024-01-06T11:38:02;6.90;75.00
27266;DHT22;14766;51.380;13.762;2024-01-06T11:40:32;6.90;75.00
27266;DHT22;14766;51.380;13.762;2024-01-06T11:43:11;6.90;75.10
27266;DHT22;14766;51.380;13.762;2024-01-06T11:45:42;7.00;75.10
27266;DHT22;14766;51.380;13.762;2024-01-06T11:48:11;7.00;75.10
27266;DHT22;14766;51.380;13.762;2024-01-06T11:50:40;7.00;75.00
27266;DHT22;14766;51.380;13.762;2024-01-06T11:53:09;7.00;75.00
27266;DHT22;14766;51.380;13.762;2024-01-06T11:55:39;7.00;74.90
27266;DHT22;14766;51.380;13.762;2024-01-06T11:58:07;7.00;74.80
27266;DHT22;14766;51.380;13.762;2024-01-06T12:00:35;7.00;74.70
27266;DHT22;14766;51.380;13.762;2024-01-06T12:03:08;7.00;74.80
27266;DHT22;14766;51.380;13.762;2024-01-06T12:05:35;7.00;74.80
27266;DHT22;14766;51.380;13.762;2024-01-06T12:08:03;7.00;74.90
27266;DHT22;14766;51.380;13.762;2024-01-06T12:10:34;7.00;74.70
27266;DHT22;14766;51.380;13.762;2024-01-06T12:13:03;7.00;74.60
27266;DHT22;14766;51.380;13.762;2024-01-06T12:15:32;7.00;75.30
27266;DHT22;14766;51.380;13.762;2024-01-06T12:18:02;7.00;74.30
27266;DHT22;14766;51.380;13.762;2024-01-06T12:20:31;6.90;74.00
27266;DHT22;14766;51.380;13.762;2024-01-06T12:22:59;6.90;74.00
27266;DHT22;14766;51.380;13.762;2024-01-06T12:25:27;6.90;74.10
27266;DHT22;14766;51.380;13.762;2024-01-06T12:27:56;6.90;74.20
27266;DHT22;14766;51.380;13.762;2024-01-06T12:30:23;6.80;74.30
27266;DHT22;14766;51.380;13.762;2024-01-06T12:32:51;6.80;74.40
27266;DHT22;14766;51.380;13.762;2024-01-06T12:35:21;6.80;74.30
27266;DHT22;14766;51.380;13.762;2024-01-06T12:37:48;6.80;74.40
27266;DHT22;14766;51.380;13.762;2024-01-06T12:40:16;6.80;74.50
27266;DHT22;14766;51.380;13.762;2024-01-06T12:42:44;6.80;74.50
27266;DHT22;14766;51.380;13.762;2024-01-06T12:45:12;6.80;74.40
27266;DHT22;14766;51.380;13.762;2024-01-06T12:47:40;6.80;74.30
27266;DHT22;14766;51.380;13.762;2024-01-06T12:50:08;6.80;74.20
27266;DHT22;14766;51.380;13.762;2024-01-06T12:52:35;6.80;74.30
27266;DHT22;14766;51.380;13.762;2024-01-06T12:55:06;6.80;74.30
27266;DHT22;14766;51.380;13.762;2024-01-06T12:57:33;6.80;74.50
27266;DHT22;14766;51.380;13.762;2024-01-06T13:00:01;6.70;74.50
27266;DHT22;14766;51.380;13.762;2024-01-06T13:02:28;6.70;74.40
27266;DHT22;14766;51.380;13.762;2024-01-06T13:04:55;6.70;74.50
27266;DHT22;14766;51.380;13.762;2024-01-06T13:07:22;6.70;74.60
27266;DHT22;14766;51.380;13.762;2024-01-06T13:09:49;6.70;74.80
27266;DHT22;14766;51.380;13.762;2024-01-06T13:12:17;6.70;74.80
27266;DHT22;14766;51.380;13.762;2024-01-06T13:14:45;6.60;75.40
27266;DHT22;14766;51.380;13.762;2024-01-06T13:17:16;6.60;74.90
27266;DHT22;14766;51.380;13.762;2024-01-06T13:19:43;6.60;74.80
27266;DHT22;14766;51.380;13.762;2024-01-06T13:22:11;6.60;74.80
27266;DHT22;14766;51.380;13.762;2024-01-06T13:24:38;6.60;74.70
27266;DHT22;14766;51.380;13.762;2024-01-06T13:27:07;6.60;74.70
27266;DHT22;14766;51.380;13.762;2024-01-06T13:29:35;6.60;74.70
27266;DHT22;14766;51.380;13.762;2024-01-06T13:32:02;6.60;74.60
27266;DHT22;14766;51.380;13.762;2024-01-06T13:34:31;6.60;74.70
27266;DHT22;14766;51.380;13.762;2024-01-06T13:36:58;6.50;74.70
27266;DHT22;14766;51.380;13.762;2024-01-06T13:39:25;6.60;74.70
27266;DHT22;14766;51.380;13.762;2024-01-06T13:41:52;6.60;74.90
27266;DHT22;14766;51.380;13.762;2024-01-06T13:44:19;6.50;74.90
27266;DHT22;14766;51.380;13.762;2024-01-06T13:46:47;6.50;74.90
27266;DHT22;14766;51.380;13.762;2024-01-06T13:49:16;6.50;75.00
27266;DHT22;14766;51.380;13.762;2024-01-06T13:51:43;6.50;75.10
27266;DHT22;14766;51.380;13.762;2024-01-06T13:54:11;6.50;75.00
27266;DHT22;14766;51.380;13.762;2024-01-06T13:56:38;6.50;75.20
27266;DHT22;14766;51.380;13.762;2024-01-06T13:59:05;6.50;75.20
27266;DHT22;14766;51.380;13.762;2024-01-06T14:01:32;6.50;75.00
27266;DHT22;14766;51.380;13.762;2024-01-06T14:04:00;6.50;75.00
27266;DHT22;14766;51.380;13.762;2024-01-06T14:06:28;6.60;75.10
27266;DHT22;14766;51.380;13.762;2024-01-06T14:08:58;6.50;75.00
27266;DHT22;14766;51.380;13.762;2024-01-06T14:11:26;6.50;74.70
27266;DHT22;14766;51.380;13.762;2024-01-06T14:13:53;6.50;74.70
27266;DHT22;14766;51.380;13.762;2024-01-06T14:16:20;6.50;74.70
27266;DHT22;14766;51.380;13.762;2024-01-06T14:18:47;6.50;74.70
27266;DHT22;14766;51.380;13.762;2024-01-06T14:21:15;6.50;74.70
27266;DHT22;14766;51.380;13.762;2024-01-06T14:23:46;6.50;74.70
27266;DHT22;14766;51.380;13.762;2024-01-06T14:26:17;6.50;74.70
27266;DHT22;14766;51.380;13.762;2024-01-06T14:28:47;6.40;74.50
27266;DHT22;14766;51.380;13.762;2024-01-06T14:31:15;6.40;74.60
27266;DHT22;14766;51.380;13.762;2024-01-06T14:33:43;6.40;74.70
27266;DHT22;14766;51.380;13.762;2024-01-06T14:36:11;6.40;74.80
27266;DHT22;14766;51.380;13.762;2024-01-06T14:38:38;6.40;75.00
27266;DHT22;14766;51.380;13.762;2024-01-06T14:41:06;6.40;75.00
27266;DHT22;14766;51.380;13.762;2024-01-06T14:43:33;6.40;75.00
27266;DHT22;14766;51.380;13.762;2024-01-06T14:46:00;6.40;75.00
27266;DHT22;14766;51.380;13.762;2024-01-06T14:48:28;6.40;75.00
27266;DHT22;14766;51.380;13.762;2024-01-06T14:50:55;6.40;75.00
27266;DHT22;14766;51.380;13.762;2024-01-06T14:53:22;6.50;75.90
27266;DHT22;14766;51.380;13.762;2024-01-06T14:55:49;6.50;75.10
27266;DHT22;14766;51.380;13.762;2024-01-06T14:58:16;6.50;75.00
27266;DHT22;14766;51.380;13.762;2024-01-06T15:00:43;6.50;75.00
27266;DHT22;14766;51.380;13.762;2024-01-06T15:03:11;6.50;75.00
27266;DHT22;14766;51.380;13.762;2024-01-06T15:05:38;6.50;75.00
27266;DHT22;14766;51.380;13.762;2024-01-06T15:08:06;6.50;74.90
27266;DHT22;14766;51.380;13.762;2024-01-06T15:10:33;6.60;74.80
27266;DHT22;14766;51.380;13.762;2024-01-06T15:13:01;6.50;74.60
27266;DHT22;14766;51.380;13.762;2024-01-06T15:15:30;6.50;74.50
27266;DHT22;14766;51.380;13.762;2024-01-06T15:17:58;6.50;74.50
27266;DHT22;14766;51.380;13.762;2024-01-06T15:20:25;6.50;74.50
27266;DHT22;14766;51.380;13.762;2024-01-06T15:22:52;6.50;74.50
27266;DHT22;14766;51.380;13.762;2024-01-06T15:25:19;6.40;74.30
27266;DHT22;14766;51.380;13.762;2024-01-06T15:27:47;6.40;74.50
27266;DHT22;14766;51.380;13.762;2024-01-06T15:30:14;6.40;74.60
27266;DHT22;14766;51.380;13.762;2024-01-06T15:32:44;6.40;74.50